Time;durP1;ratioP1;P1;durP2;ratioP2;P2;SDS_P1;SDS_P2;PMS_P1;PMS_P2;Temp;Humidity;BMP_temperature;BMP_pressure;BME280_temperature;BME280_humidity;BME280_pressure;Samples;Min_cycle;Max_cycle;Signal;HPM_P1;HPM_P2
2022/09/02 00:02:24;;;;;;;6.95;4.03;;;16.40;99.90;;;;;;6228676;28;20045;-78
2022/09/02 00:05:26;;;;;;;16.77;3.85;;;16.40;99.90;;;;;;6228687;28;20050;-78
2022/09/02 00:08:31;;;;;;;5.82;3.88;;;16.40;99.90;;;;;;6227645;28;20054;-77
2022/09/02 00:11:34;;;;;;;9.73;4.25;;;16.30;99.90;;;;;;6228306;28;20052;-78
2022/09/02 00:14:38;;;;;;;6.78;5.07;;;16.30;99.90;;;;;;6224014;28;20597;-78
2022/09/02 00:17:40;;;;;;;5.15;3.95;;;16.30;99.90;;;;;;6227645;28;20084;-80
2022/09/02 00:20:43;;;;;;;10.55;4.18;;;16.20;99.90;;;;;;6228205;28;20054;-79
2022/09/02 00:23:46;;;;;;;7.22;3.63;;;16.20;99.90;;;;;;6227744;28;20053;-79
2022/09/02 00:26:48;;;;;;;9.38;3.70;;;16.20;99.90;;;;;;6224172;28;20072;-76
2022/09/02 00:29:50;;;;;;;4.57;3.65;;;16.10;99.90;;;;;;6226897;28;20048;-79
2022/09/02 00:32:52;;;;;;;6.75;4.20;;;16.10;99.90;;;;;;6227537;28;20463;-79
2022/09/02 00:35:53;;;;;;;6.60;4.13;;;16.10;99.90;;;;;;6228500;28;20054;-79
2022/09/02 00:38:56;;;;;;;5.25;3.63;;;16.10;99.90;;;;;;6228313;28;20050;-78
2022/09/02 00:42:00;;;;;;;7.28;4.05;;;16.10;99.90;;;;;;6228984;28;20053;-79
2022/09/02 00:45:03;;;;;;;4.82;3.85;;;16.00;99.90;;;;;;6227932;28;20045;-77
2022/09/02 00:48:06;;;;;;;9.23;4.38;;;16.00;99.90;;;;;;6228857;28;20046;-79
2022/09/02 00:51:09;;;;;;;4.60;4.10;;;15.90;99.90;;;;;;6226890;28;20528;-77
2022/09/02 00:54:13;;;;;;;5.20;3.90;;;15.90;99.90;;;;;;6223592;28;20041;-78
2022/09/02 00:57:20;;;;;;;8.35;3.83;;;15.80;99.90;;;;;;6223519;28;20050;-78
2022/09/02 01:00:25;;;;;;;9.75;4.50;;;15.80;99.90;;;;;;6221548;28;20433;-77
2022/09/02 01:03:30;;;;;;;5.80;4.18;;;15.80;99.90;;;;;;6223259;28;20052;-78
2022/09/02 01:06:32;;;;;;;37.42;10.27;;;15.70;99.90;;;;;;6223385;28;20070;-78
2022/09/02 01:09:36;;;;;;;8.15;4.10;;;15.70;99.90;;;;;;6222825;28;20046;-78
2022/09/02 01:12:39;;;;;;;7.20;4.25;;;15.70;99.90;;;;;;6222738;28;20049;-77
2022/09/02 01:15:44;;;;;;;25.35;4.40;;;15.70;99.90;;;;;;6222530;28;20046;-77
2022/09/02 01:18:51;;;;;;;5.55;4.28;;;15.70;99.90;;;;;;6223170;28;20054;-77
2022/09/02 01:21:55;;;;;;;4.97;3.60;;;15.70;99.90;;;;;;6222223;28;20046;-78
2022/09/02 01:25:03;;;;;;;5.65;3.72;;;15.70;99.90;;;;;;6221233;28;20046;-77
2022/09/02 01:28:10;;;;;;;8.75;4.45;;;15.60;99.90;;;;;;6222751;28;20045;-78
2022/09/02 01:31:12;;;;;;;6.57;4.47;;;15.60;99.90;;;;;;6222476;28;20060;-77
2022/09/02 01:34:14;;;;;;;7.35;4.32;;;15.60;99.90;;;;;;6222617;28;20056;-77
2022/09/02 01:37:17;;;;;;;7.97;4.13;;;15.40;99.90;;;;;;6222013;28;20061;-77
2022/09/02 01:40:19;;;;;;;11.32;4.88;;;15.50;99.90;;;;;;6222837;28;20050;-78
2022/09/02 01:43:24;;;;;;;8.38;4.97;;;15.50;99.90;;;;;;6221784;28;20046;-77
2022/09/02 01:46:25;;;;;;;9.20;4.57;;;15.50;99.90;;;;;;6222135;28;20517;-77
2022/09/02 01:49:27;;;;;;;5.93;3.63;;;15.40;99.90;;;;;;6221040;28;20054;-78
2022/09/02 01:52:30;;;;;;;8.80;4.53;;;15.40;99.90;;;;;;6221433;28;20061;-77
2022/09/02 01:55:33;;;;;;;9.93;3.85;;;15.30;99.90;;;;;;6221238;28;20069;-78
2022/09/02 01:58:35;;;;;;;8.55;4.95;;;15.30;99.90;;;;;;6221423;28;20049;-78
2022/09/02 02:01:37;;;;;;;13.63;4.60;;;15.30;99.90;;;;;;6220512;28;20046;-77
2022/09/02 02:04:38;;;;;;;7.60;4.43;;;15.30;99.90;;;;;;6221780;28;20068;-78
2022/09/02 02:07:41;;;;;;;9.40;5.07;;;15.30;99.90;;;;;;6221085;28;20042;-77
2022/09/02 02:10:43;;;;;;;7.72;5.45;;;15.30;99.90;;;;;;6221466;28;20143;-78
2022/09/02 02:13:45;;;;;;;6.28;4.75;;;15.20;99.90;;;;;;6221278;28;20041;-78
2022/09/02 02:16:47;;;;;;;5.75;4.32;;;15.20;99.90;;;;;;6221356;28;20698;-77
2022/09/02 02:19:49;;;;;;;5.82;4.28;;;15.10;99.90;;;;;;6221504;28;20054;-77
2022/09/02 02:22:52;;;;;;;10.30;5.00;;;15.10;99.90;;;;;;6221550;28;20085;-77
2022/09/02 02:25:54;;;;;;;7.20;4.40;;;15.10;99.90;;;;;;6221470;28;20056;-77
2022/09/02 02:28:56;;;;;;;8.45;4.93;;;15.00;99.90;;;;;;6220978;28;20042;-77
2022/09/02 02:31:58;;;;;;;6.13;4.38;;;15.00;99.90;;;;;;6221151;28;20049;-77
2022/09/02 02:34:59;;;;;;;7.63;4.25;;;15.00;99.90;;;;;;6221154;28;20046;-77
2022/09/02 02:38:03;;;;;;;4.30;3.45;;;15.00;99.90;;;;;;6220272;28;20053;-77
2022/09/02 02:41:06;;;;;;;13.93;4.82;;;14.90;99.90;;;;;;6221005;28;20419;-78
2022/09/02 02:44:09;;;;;;;5.50;4.22;;;14.80;99.90;;;;;;6220207;28;20054;-77
2022/09/02 02:47:10;;;;;;;7.82;4.15;;;14.90;99.90;;;;;;6221344;28;20488;-77
2022/09/02 02:50:15;;;;;;;6.03;4.30;;;14.80;99.90;;;;;;6220874;28;20511;-78
2022/09/02 02:53:19;;;;;;;7.80;4.43;;;14.80;99.90;;;;;;6220795;28;20046;-77
2022/09/02 02:56:21;;;;;;;7.97;4.20;;;14.80;99.90;;;;;;6220744;28;20052;-77
2022/09/02 02:59:24;;;;;;;5.55;4.20;;;14.80;99.90;;;;;;6220597;28;20053;-77
2022/09/02 03:02:32;;;;;;;7.75;4.30;;;14.80;99.90;;;;;;6219868;28;20119;-77
2022/09/02 03:05:36;;;;;;;4.65;3.78;;;14.80;99.90;;;;;;6220712;28;20053;-77
2022/09/02 03:08:39;;;;;;;5.78;4.35;;;14.70;99.90;;;;;;6220822;28;20046;-77
2022/09/02 03:11:41;;;;;;;6.50;4.72;;;14.70;99.90;;;;;;6220590;28;20056;-77
2022/09/02 03:14:43;;;;;;;5.72;4.15;;;14.60;99.90;;;;;;6220701;28;20057;-77
2022/09/02 03:17:46;;;;;;;5.50;4.22;;;14.60;99.90;;;;;;6220119;28;20129;-77
2022/09/02 03:20:48;;;;;;;9.15;5.43;;;14.60;99.90;;;;;;6220587;28;20046;-77
2022/09/02 03:23:51;;;;;;;7.85;3.83;;;14.50;99.90;;;;;;6220365;28;20053;-77
2022/09/02 03:26:53;;;;;;;8.68;4.47;;;14.50;99.90;;;;;;6221081;28;20054;-77
2022/09/02 03:29:55;;;;;;;5.25;4.40;;;14.50;99.90;;;;;;6220095;28;20061;-77
2022/09/02 03:33:00;;;;;;;16.67;5.07;;;14.50;99.90;;;;;;6220385;28;20517;-77
2022/09/02 03:36:01;;;;;;;14.02;5.25;;;14.40;99.90;;;;;;6220270;28;20416;-77
2022/09/02 03:39:06;;;;;;;5.28;4.65;;;14.40;99.90;;;;;;6220673;28;20065;-77
2022/09/02 03:42:08;;;;;;;7.53;4.68;;;14.40;99.90;;;;;;6219980;28;20053;-77
2022/09/02 03:45:11;;;;;;;9.38;4.80;;;14.30;99.90;;;;;;6220135;28;20060;-77
2022/09/02 03:48:14;;;;;;;6.25;4.10;;;14.30;99.90;;;;;;6221985;28;20670;-77
2022/09/02 03:51:15;;;;;;;6.70;3.83;;;14.40;99.90;;;;;;6224638;28;20045;-77
2022/09/02 03:54:18;;;;;;;9.95;4.72;;;14.30;99.90;;;;;;6224865;28;20157;-78
2022/09/02 03:57:24;;;;;;;7.60;3.85;;;14.30;99.90;;;;;;6224337;28;20061;-78
2022/09/02 04:00:30;;;;;;;5.13;3.83;;;14.20;99.90;;;;;;6224830;28;20053;-77
2022/09/02 04:03:32;;;;;;;5.72;3.45;;;14.30;99.90;;;;;;6223013;28;20128;-78
2022/09/02 04:06:34;;;;;;;10.48;4.53;;;14.30;99.90;;;;;;6225131;28;20054;-78
2022/09/02 04:09:37;;;;;;;4.45;3.78;;;14.30;99.90;;;;;;6224267;28;20057;-77
2022/09/02 04:12:39;;;;;;;6.55;3.95;;;14.20;99.90;;;;;;6224688;28;20060;-78
2022/09/02 04:15:43;;;;;;;5.85;4.43;;;14.20;99.90;;;;;;6225037;28;20180;-78
2022/09/02 04:18:45;;;;;;;10.07;4.10;;;14.20;99.90;;;;;;6226175;28;20096;-78
2022/09/02 04:21:46;;;;;;;4.95;4.22;;;14.10;99.90;;;;;;6225344;28;20058;-78
2022/09/02 04:24:49;;;;;;;5.53;4.63;;;14.10;99.90;;;;;;6225222;28;20044;-78
2022/09/02 04:27:51;;;;;;;10.00;4.05;;;14.10;99.90;;;;;;6224781;28;20052;-78
2022/09/02 04:30:53;;;;;;;10.73;4.50;;;14.20;99.90;;;;;;6225908;28;20102;-78
2022/09/02 04:33:55;;;;;;;6.07;4.28;;;14.20;99.90;;;;;;6224759;28;20042;-78
2022/09/02 04:36:57;;;;;;;8.68;3.90;;;14.20;99.90;;;;;;6225193;28;20060;-78
2022/09/02 04:40:00;;;;;;;4.90;3.78;;;14.10;99.90;;;;;;6224565;28;20042;-78
2022/09/02 04:43:03;;;;;;;4.90;4.32;;;14.10;99.90;;;;;;6225393;28;20049;-78
2022/09/02 04:46:05;;;;;;;5.68;4.03;;;14.10;99.90;;;;;;6224378;28;20420;-78
2022/09/02 04:49:07;;;;;;;6.03;4.07;;;14.10;99.90;;;;;;6223222;28;20046;-78
2022/09/02 04:52:09;;;;;;;4.55;3.78;;;14.10;99.90;;;;;;6223648;28;20042;-78
2022/09/02 04:55:12;;;;;;;6.47;3.72;;;14.10;99.90;;;;;;6224563;28;20056;-78
2022/09/02 04:58:15;;;;;;;8.98;4.50;;;14.20;99.90;;;;;;6223754;28;20057;-78
2022/09/02 05:01:20;;;;;;;4.25;3.63;;;14.20;99.90;;;;;;6224100;28;20061;-78
2022/09/02 05:04:22;;;;;;;10.20;4.68;;;14.30;99.90;;;;;;6222333;28;20534;-77
2022/09/02 05:07:24;;;;;;;6.20;3.05;;;14.30;99.90;;;;;;6223580;28;20045;-77
2022/09/02 05:10:27;;;;;;;3.83;2.92;;;14.40;99.90;;;;;;6224009;28;20622;-78
2022/09/02 05:13:29;;;;;;;5.47;3.03;;;14.60;99.90;;;;;;6223093;28;20400;-78
2022/09/02 05:16:35;;;;;;;3.30;2.90;;;14.60;99.90;;;;;;6223550;28;20076;-78
2022/09/02 05:19:37;;;;;;;6.03;3.00;;;14.60;99.90;;;;;;6223982;28;20073;-78
2022/09/02 05:22:39;;;;;;;3.50;2.88;;;14.80;99.90;;;;;;6225018;28;20050;-78
2022/09/02 05:25:43;;;;;;;5.85;3.50;;;14.90;99.90;;;;;;6224234;28;20530;-78
2022/09/02 05:28:45;;;;;;;7.97;3.15;;;15.10;99.90;;;;;;6223774;28;20049;-78
2022/09/02 05:31:47;;;;;;;6.15;2.58;;;15.30;99.90;;;;;;6224046;28;20049;-78
2022/09/02 05:34:49;;;;;;;5.65;3.03;;;15.50;99.90;;;;;;6224180;28;20057;-78
2022/09/02 05:37:51;;;;;;;4.80;2.65;;;15.80;99.90;;;;;;6223294;28;20045;-78
2022/09/02 05:40:54;;;;;;;3.13;1.90;;;16.00;99.90;;;;;;6223698;28;20053;-78
2022/09/02 05:43:59;;;;;;;3.88;2.03;;;16.10;99.90;;;;;;6223749;28;20050;-78
2022/09/02 05:47:01;;;;;;;6.07;2.42;;;16.30;99.90;;;;;;6224007;28;20054;-77
2022/09/02 05:50:03;;;;;;;9.48;2.70;;;16.50;99.90;;;;;;6223611;28;20049;-78
2022/09/02 05:53:05;;;;;;;5.95;2.22;;;16.80;99.90;;;;;;6223433;28;20041;-78
2022/09/02 05:56:08;;;;;;;11.70;2.13;;;17.00;99.90;;;;;;6222916;28;20412;-78
2022/09/02 05:59:10;;;;;;;6.30;2.00;;;17.30;99.90;;;;;;6223544;28;20050;-78
2022/09/02 06:02:13;;;;;;;2.90;1.73;;;17.50;99.90;;;;;;6222324;28;20048;-78
2022/09/02 06:05:16;;;;;;;4.30;1.80;;;17.80;99.90;;;;;;6221050;28;20057;-78
2022/09/02 06:08:19;;;;;;;3.03;1.80;;;18.10;99.90;;;;;;6222548;28;20045;-78
2022/09/02 06:11:22;;;;;;;3.60;1.70;;;18.30;99.50;;;;;;6222154;28;20412;-78
2022/09/02 06:14:25;;;;;;;2.88;1.90;;;18.60;98.90;;;;;;6222670;28;20053;-78
2022/09/02 06:17:27;;;;;;;2.53;1.08;;;19.00;98.10;;;;;;6222162;28;20045;-79
2022/09/02 06:20:31;;;;;;;7.55;1.65;;;19.20;96.20;;;;;;6221388;28;20057;-77
2022/09/02 06:23:34;;;;;;;3.50;1.17;;;19.50;95.90;;;;;;6221035;28;20056;-77
2022/09/02 06:26:39;;;;;;;3.65;0.93;;;19.80;93.90;;;;;;6221836;28;20052;-77
2022/09/02 06:29:41;;;;;;;2.33;1.10;;;20.00;92.30;;;;;;6220968;28;20423;-78
2022/09/02 06:32:43;;;;;;;4.18;1.17;;;20.20;91.30;;;;;;6220847;28;20050;-78
2022/09/02 06:35:46;;;;;;;2.42;1.17;;;20.30;90.90;;;;;;6220628;28;20107;-78
2022/09/02 06:38:50;;;;;;;3.97;0.75;;;20.50;89.50;;;;;;6221111;28;20073;-78
2022/09/02 06:41:53;;;;;;;5.05;0.88;;;20.70;87.80;;;;;;6220903;28;20046;-77
2022/09/02 06:44:55;;;;;;;1.83;1.15;;;20.50;86.10;;;;;;6220223;28;20546;-78
2022/09/02 06:47:56;;;;;;;2.58;1.00;;;20.80;86.50;;;;;;6220115;28;20411;-78
2022/09/02 06:51:00;;;;;;;1.23;0.65;;;21.10;84.90;;;;;;6221445;28;20058;-78
2022/09/02 06:54:03;;;;;;;2.53;0.63;;;21.50;82.40;;;;;;6220542;28;20120;-78
2022/09/02 06:57:06;;;;;;;2.67;0.70;;;22.10;80.20;;;;;;6220613;28;20046;-78
2022/09/02 07:00:10;;;;;;;4.55;1.00;;;22.90;76.60;;;;;;6220081;28;20049;-78
2022/09/02 07:06:35;;;;;;;2.00;0.63;;;24.40;69.80;;;;;;6219370;28;20050;-77
2022/09/02 07:09:36;;;;;;;1.23;0.82;;;25.40;66.90;;;;;;6220345;28;20056;-77
2022/09/02 07:12:41;;;;;;;5.63;1.00;;;26.70;62.00;;;;;;6220421;28;20526;-78
2022/09/02 07:15:42;;;;;;;2.38;0.90;;;27.80;57.60;;;;;;6220020;28;20046;-77
2022/09/02 07:18:44;;;;;;;3.95;0.90;;;28.20;54.80;;;;;;6220392;28;20046;-78
2022/09/02 07:21:46;;;;;;;1.35;0.68;;;28.30;53.30;;;;;;6221605;28;20045;-78
2022/09/02 07:24:48;;;;;;;1.48;0.60;;;28.20;53.20;;;;;;6225346;28;20049;-78
2022/09/02 07:27:51;;;;;;;1.60;0.98;;;28.40;52.60;;;;;;6224760;28;20415;-77
2022/09/02 07:30:54;;;;;;;6.20;1.05;;;28.20;51.80;;;;;;6225371;28;20135;-77
2022/09/02 07:33:57;;;;;;;1.40;0.70;;;28.30;51.60;;;;;;6224675;28;20056;-78
2022/09/02 07:36:59;;;;;;;2.03;0.70;;;28.20;52.00;;;;;;6224681;28;20057;-78
2022/09/02 07:40:01;;;;;;;1.27;0.77;;;27.80;51.90;;;;;;6224332;28;20514;-78
2022/09/02 07:43:06;;;;;;;1.48;0.52;;;27.20;53.20;;;;;;6224929;28;20046;-78
2022/09/02 07:46:07;;;;;;;3.72;1.00;;;27.10;53.90;;;;;;6224151;28;20038;-78
2022/09/02 07:49:11;;;;;;;0.73;0.50;;;26.90;53.90;;;;;;6224382;28;20057;-78
2022/09/02 07:52:12;;;;;;;6.50;0.73;;;26.70;53.70;;;;;;6224726;28;20045;-77
2022/09/02 07:55:14;;;;;;;1.05;0.60;;;26.90;54.10;;;;;;6224582;28;20050;-77
2022/09/02 07:58:21;;;;;;;0.70;0.40;;;26.90;52.90;;;;;;6224391;28;20613;-77
2022/09/02 08:01:22;;;;;;;5.60;0.70;;;26.80;53.10;;;;;;6224118;28;20419;-78
2022/09/02 08:04:24;;;;;;;2.75;0.73;;;27.00;53.40;;;;;;6222960;28;20054;-76
2022/09/02 08:07:26;;;;;;;2.63;0.40;;;27.80;51.30;;;;;;6197778;28;20416;-77
2022/09/02 08:10:29;;;;;;;3.08;0.82;;;28.40;50.10;;;;;;6228538;28;20416;-78
2022/09/02 08:13:32;;;;;;;4.50;0.55;;;28.90;48.40;;;;;;6228262;28;20056;-77
2022/09/02 08:16:34;;;;;;;2.88;0.60;;;29.70;47.40;;;;;;6222329;28;20038;-78
2022/09/02 08:19:35;;;;;;;1.27;0.47;;;30.30;45.90;;;;;;6222347;28;20407;-78
2022/09/02 08:22:38;;;;;;;4.60;0.57;;;30.00;44.30;;;;;;6224666;28;20077;-79
2022/09/02 08:25:41;;;;;;;2.55;0.55;;;29.00;45.80;;;;;;6224051;28;20423;-78
2022/09/02 08:28:44;;;;;;;2.67;0.40;;;28.50;47.50;;;;;;6223899;28;20057;-79
2022/09/02 08:31:46;;;;;;;2.80;0.50;;;28.00;48.30;;;;;;6222689;28;20053;-79
2022/09/02 08:34:47;;;;;;;2.38;0.70;;;27.50;48.20;;;;;;6223096;28;20388;-79
2022/09/02 08:37:49;;;;;;;1.48;0.63;;;27.30;48.80;;;;;;6223291;28;20519;-79
2022/09/02 08:40:51;;;;;;;1.10;0.40;;;27.00;50.50;;;;;;6223160;28;20447;-80
2022/09/02 08:43:58;;;;;;;3.10;0.77;;;26.50;50.10;;;;;;6199327;28;20046;-79
2022/09/02 08:47:04;;;;;;;6.30;0.80;;;26.30;51.80;;;;;;6199373;28;20415;-78
2022/09/02 08:50:12;;;;;;;3.35;0.63;;;26.00;52.90;;;;;;6198865;28;20054;-79
2022/09/02 08:53:20;;;;;;;4.38;1.40;;;25.80;53.10;;;;;;6199056;28;20527;-78
2022/09/02 08:56:22;;;;;;;4.93;1.10;;;25.70;54.10;;;;;;6199336;28;20107;-78
2022/09/02 08:59:27;;;;;;;4.78;0.77;;;25.70;55.10;;;;;;6206249;28;20539;-78
2022/09/02 09:02:41;;;;;;;3.13;1.15;;;25.60;55.10;;;;;;6223403;28;20181;-78
2022/09/02 09:05:49;;;;;;;4.65;1.17;;;25.60;55.20;;;;;;6222779;28;20500;-78
2022/09/02 09:08:55;;;;;;;;;;;25.60;55.00;;;;;;6221133;28;20053;-78
2022/09/02 09:12:07;;;;;;;3.72;0.57;;;25.70;54.90;;;;;;6222623;28;20438;-79
2022/09/02 09:15:18;;;;;;;3.03;0.90;;;25.70;55.20;;;;;;6222313;28;20488;-78
2022/09/02 09:18:37;;;;;;;6.38;0.90;;;25.60;54.90;;;;;;6223066;28;20054;-78
2022/09/02 09:21:39;;;;;;;1.45;0.65;;;25.80;55.50;;;;;;6222826;28;20050;-80
2022/09/02 09:24:44;;;;;;;2.97;0.90;;;26.00;55.40;;;;;;6222412;28;20522;-78
2022/09/02 09:27:45;;;;;;;2.17;0.60;;;26.20;53.70;;;;;;6222392;28;20049;-79
2022/09/02 09:30:51;;;;;;;2.50;0.70;;;26.00;53.30;;;;;;6222382;28;20050;-78
2022/09/02 09:33:57;;;;;;;1.13;0.70;;;26.10;53.60;;;;;;6198317;28;20064;-79
2022/09/02 09:36:59;;;;;;;2.63;0.80;;;26.40;53.10;;;;;;6197744;28;20061;-79
2022/09/02 09:40:01;;;;;;;1.25;0.73;;;27.40;51.80;;;;;;6217715;28;20065;-80
2022/09/02 09:43:13;;;;;;;3.72;0.75;;;28.50;50.30;;;;;;6225660;28;20054;-80
2022/09/02 09:46:27;;;;;;;3.13;0.85;;;29.70;47.20;;;;;;6220641;28;20046;-78
2022/09/02 09:49:31;;;;;;;1.00;0.50;;;30.00;46.00;;;;;;6221449;28;20112;-78
2022/09/02 09:52:33;;;;;;;1.52;0.70;;;29.90;45.60;;;;;;6221475;28;20519;-79
2022/09/02 09:55:53;;;;;;;0.85;0.50;;;29.60;46.00;;;;;;6222177;28;20095;-79
2022/09/02 09:58:55;;;;;;;4.75;0.65;;;28.70;45.90;;;;;;6215927;28;20046;-79
2022/09/02 10:01:58;;;;;;;2.55;0.60;;;28.00;45.90;;;;;;6222979;28;20507;-77
2022/09/02 10:05:16;;;;;;;3.25;0.80;;;27.20;47.20;;;;;;6222568;28;20523;-77
2022/09/02 10:08:22;;;;;;;1.00;0.50;;;27.10;47.70;;;;;;6222825;28;20500;-77
2022/09/02 10:11:27;;;;;;;3.20;0.50;;;26.90;48.00;;;;;;6222769;28;20053;-79
2022/09/02 10:14:34;;;;;;;3.25;0.98;;;26.90;48.20;;;;;;6222965;28;20054;-78
2022/09/02 10:17:46;;;;;;;4.03;0.70;;;26.80;47.80;;;;;;6222079;28;20112;-77
2022/09/02 10:20:56;;;;;;;1.08;0.30;;;26.90;46.80;;;;;;6214438;28;20045;-79
2022/09/02 10:24:08;;;;;;;1.73;0.40;;;27.00;46.70;;;;;;6222381;28;20056;-78
2022/09/02 10:27:16;;;;;;;1.55;0.63;;;27.10;46.40;;;;;;6222942;28;20046;-78
2022/09/02 10:30:20;;;;;;;1.05;0.40;;;27.20;45.50;;;;;;6222637;28;20495;-78
2022/09/02 10:33:35;;;;;;;1.92;0.80;;;27.00;45.40;;;;;;6222199;28;20054;-78
2022/09/02 10:36:47;;;;;;;1.02;0.30;;;27.20;45.50;;;;;;6222011;28;20566;-77
2022/09/02 10:40:08;;;;;;;0.63;0.30;;;27.30;44.40;;;;;;6222098;28;20053;-77
2022/09/02 10:43:23;;;;;;;2.10;0.50;;;27.20;44.80;;;;;;6222378;28;20498;-77
2022/09/02 10:46:26;;;;;;;5.13;0.60;;;27.30;45.00;;;;;;6222276;28;20104;-77
2022/09/02 10:49:45;;;;;;;2.03;0.60;;;27.40;44.00;;;;;;6221618;28;20058;-79
2022/09/02 10:53:02;;;;;;;2.00;0.43;;;27.60;44.00;;;;;;6221972;28;20125;-78
2022/09/02 10:56:08;;;;;;;2.03;0.55;;;27.90;43.40;;;;;;6221390;28;20050;-78
2022/09/02 10:59:13;;;;;;;1.35;0.63;;;28.10;43.80;;;;;;6222011;28;20045;-78
2022/09/02 11:02:21;;;;;;;2.35;0.30;;;28.20;42.80;;;;;;6221943;28;20519;-77
2022/09/02 11:05:27;;;;;;;1.33;0.40;;;28.30;42.60;;;;;;6221840;28;20064;-79
2022/09/02 11:08:38;;;;;;;2.97;0.60;;;28.60;42.80;;;;;;6221594;28;20042;-79
2022/09/02 11:11:45;;;;;;;2.63;0.45;;;28.80;42.70;;;;;;6221841;28;20053;-77
2022/09/02 11:14:57;;;;;;;15.63;0.73;;;28.70;41.00;;;;;;6221900;28;20053;-78
2022/09/02 11:18:09;;;;;;;4.40;0.88;;;28.80;43.00;;;;;;6221354;28;20048;-78
2022/09/02 11:21:24;;;;;;;2.78;0.32;;;29.10;41.40;;;;;;6221617;28;20060;-79
2022/09/02 11:24:33;;;;;;;0.98;0.57;;;29.50;39.40;;;;;;6221572;28;20053;-78
2022/09/02 11:27:41;;;;;;;1.65;0.35;;;29.40;39.30;;;;;;6221637;28;20057;-77
2022/09/02 11:30:49;;;;;;;2.25;0.22;;;29.30;39.70;;;;;;6221784;28;20057;-78
2022/09/02 11:33:55;;;;;;;1.40;0.20;;;29.10;39.50;;;;;;6221086;28;20042;-78
2022/09/02 11:36:58;;;;;;;4.03;0.40;;;29.20;39.20;;;;;;6221478;28;20042;-79
2022/09/02 11:40:05;;;;;;;2.92;0.47;;;29.00;39.70;;;;;;6221699;28;20053;-79
2022/09/02 11:43:23;;;;;;;0.40;0.30;;;29.20;39.40;;;;;;6215593;28;20042;-80
2022/09/02 11:46:47;;;;;;;1.92;0.30;;;29.20;39.00;;;;;;6216501;28;20046;-79
2022/09/02 11:50:24;;;;;;;1.42;0.47;;;29.20;38.60;;;;;;6213409;28;20050;-79
2022/09/02 11:53:30;;;;;;;1.10;0.50;;;29.40;38.50;;;;;;6217873;28;20042;-79
2022/09/02 11:56:39;;;;;;;0.57;0.28;;;29.70;38.20;;;;;;6196659;28;20092;-79
2022/09/02 12:00:12;;;;;;;1.15;0.60;;;30.00;37.70;;;;;;6197752;28;20393;-80
2022/09/02 12:03:22;;;;;;;2.67;0.40;;;30.40;37.40;;;;;;6198411;28;20054;-80
2022/09/02 12:06:25;;;;;;;5.57;0.50;;;30.70;36.70;;;;;;6197865;28;20097;-79
2022/09/02 12:13:04;;;;;;;0.55;0.28;;;30.80;36.50;;;;;;6308521;27;20395;-80
2022/09/02 12:16:44;;;;;;;1.88;0.40;;;30.20;37.00;;;;;;6268194;28;20037;-79
2022/09/02 12:19:47;;;;;;;0.98;0.20;;;30.00;36.40;;;;;;6296324;28;20044;-80
2022/09/02 12:22:48;;;;;;;0.57;0.28;;;29.80;37.40;;;;;;6304364;28;20041;-80
2022/09/02 12:25:57;;;;;;;1.05;0.30;;;29.80;37.10;;;;;;6317606;28;20075;-79
2022/09/02 12:29:13;;;;;;;1.00;0.40;;;29.90;36.90;;;;;;6317293;28;20090;-80
2022/09/02 12:33:03;;;;;;;0.25;0.15;;;30.00;37.20;;;;;;6305098;28;20506;-79
2022/09/02 12:36:07;;;;;;;0.77;0.40;;;30.00;36.80;;;;;;6296164;28;20046;-79
2022/09/02 12:39:42;;;;;;;1.13;0.52;;;29.90;36.50;;;;;;6316339;28;20516;-79
2022/09/02 12:42:46;;;;;;;2.65;0.30;;;29.60;37.10;;;;;;6291685;28;20060;-80
2022/09/02 12:45:50;;;;;;;0.77;0.43;;;29.90;36.50;;;;;;6289517;28;20675;-81
2022/09/02 12:49:01;;;;;;;0.60;0.20;;;30.30;37.00;;;;;;6298328;28;20048;-77
2022/09/02 12:52:05;;;;;;;2.58;0.40;;;30.80;36.00;;;;;;6298428;28;20041;-77
2022/09/02 12:55:12;;;;;;;1.70;0.32;;;30.80;36.80;;;;;;6301814;28;20045;-78
2022/09/02 12:58:21;;;;;;;0.40;0.30;;;31.00;35.40;;;;;;6290479;28;20052;-79
2022/09/02 13:01:37;;;;;;;0.70;0.25;;;31.10;35.60;;;;;;6290213;28;20049;-78
2022/09/02 13:04:45;;;;;;;2.00;0.55;;;31.30;35.40;;;;;;6278751;28;20049;-79
2022/09/02 13:08:11;;;;;;;3.50;0.50;;;31.10;35.90;;;;;;6266385;28;20051;-79
2022/09/02 13:11:52;;;;;;;4.43;0.50;;;31.00;35.10;;;;;;6281574;28;20102;-79
2022/09/02 13:15:01;;;;;;;0.35;0.20;;;30.50;35.50;;;;;;6278145;28;20092;-80
2022/09/02 13:18:38;;;;;;;1.48;0.50;;;30.40;36.20;;;;;;6266230;28;20072;-80
2022/09/02 13:22:06;;;;;;;2.95;0.43;;;30.30;36.10;;;;;;6259798;28;20056;-77
2022/09/02 13:25:43;;;;;;;0.70;0.30;;;30.30;36.30;;;;;;6257196;28;20053;-77
2022/09/02 13:29:15;;;;;;;0.35;0.20;;;30.20;35.70;;;;;;6247766;28;20448;-77
2022/09/02 13:32:24;;;;;;;2.63;0.30;;;30.10;36.20;;;;;;6235193;28;20050;-77
2022/09/02 13:35:28;;;;;;;3.20;0.30;;;30.00;35.90;;;;;;6228346;28;20049;-76
2022/09/02 13:38:31;;;;;;;2.80;0.40;;;29.90;36.40;;;;;;6248042;28;20049;-78
2022/09/02 13:41:33;;;;;;;0.63;0.40;;;29.80;35.60;;;;;;6248038;28;20139;-77
2022/09/02 13:44:35;;;;;;;4.10;0.30;;;29.80;36.10;;;;;;6248335;28;20041;-79
2022/09/02 13:47:37;;;;;;;0.98;0.30;;;29.90;36.00;;;;;;6248137;28;20053;-79
2022/09/02 13:50:45;;;;;;;0.30;0.20;;;29.80;36.00;;;;;;6249849;28;20060;-80
2022/09/02 13:53:50;;;;;;;0.52;0.32;;;29.80;35.70;;;;;;6249707;28;20427;-79
2022/09/02 13:56:51;;;;;;;3.33;0.50;;;30.00;36.60;;;;;;6247420;28;20461;-79
2022/09/02 13:59:55;;;;;;;0.40;0.20;;;30.20;35.40;;;;;;6249302;28;20056;-79
2022/09/02 14:02:59;;;;;;;2.13;0.20;;;30.20;35.10;;;;;;6250650;28;20045;-81
2022/09/02 14:06:06;;;;;;;1.20;0.38;;;29.90;34.70;;;;;;6241240;28;20037;-81
2022/09/02 14:09:18;;;;;;;1.20;0.40;;;29.70;35.80;;;;;;6235895;28;20050;-79
2022/09/02 14:12:20;;;;;;;1.63;0.40;;;29.70;36.10;;;;;;6236655;28;20052;-80
2022/09/02 14:15:26;;;;;;;2.05;0.40;;;29.80;36.00;;;;;;6244503;28;20049;-77
2022/09/02 14:18:28;;;;;;;2.38;0.40;;;29.90;35.50;;;;;;6250151;28;20136;-80
2022/09/02 14:21:32;;;;;;;0.60;0.25;;;29.90;35.50;;;;;;6272707;28;20041;-80
2022/09/02 14:24:40;;;;;;;3.55;1.05;;;29.90;35.40;;;;;;6272757;28;20568;-79
2022/09/02 14:27:48;;;;;;;0.90;0.22;;;29.70;35.60;;;;;;6272070;28;20049;-79
2022/09/02 14:30:59;;;;;;;0.95;0.35;;;29.80;35.80;;;;;;6272899;28;20049;-80
2022/09/02 14:34:03;;;;;;;3.50;0.20;;;29.60;35.70;;;;;;6271821;28;20060;-80
2022/09/02 14:37:22;;;;;;;1.10;0.50;;;29.50;35.90;;;;;;6272668;28;20040;-79
2022/09/02 14:40:33;;;;;;;1.20;0.20;;;29.40;36.40;;;;;;6272628;28;20072;-80
2022/09/02 14:43:46;;;;;;;6.30;0.60;;;29.30;35.90;;;;;;6268699;28;20052;-79
2022/09/02 14:46:50;;;;;;;3.25;0.35;;;29.10;36.20;;;;;;6248023;28;20474;-79
2022/09/02 14:49:55;;;;;;;0.35;0.20;;;29.10;36.40;;;;;;6248401;28;20052;-79
2022/09/02 14:53:04;;;;;;;4.55;0.32;;;28.90;36.90;;;;;;6271759;28;20411;-79
2022/09/02 14:56:06;;;;;;;1.45;0.50;;;28.80;36.60;;;;;;6271581;28;20041;-79
2022/09/02 14:59:08;;;;;;;2.78;0.45;;;28.90;36.60;;;;;;6272016;28;20093;-79
2022/09/02 15:02:22;;;;;;;2.22;0.45;;;28.80;36.50;;;;;;6272338;28;20045;-79
2022/09/02 15:05:24;;;;;;;0.85;0.45;;;28.80;37.40;;;;;;6271714;28;20451;-79
2022/09/02 15:08:27;;;;;;;0.77;0.38;;;28.70;36.70;;;;;;6271170;28;20045;-79
2022/09/02 15:11:28;;;;;;;1.92;0.55;;;28.80;37.10;;;;;;6271297;28;20052;-79
2022/09/02 15:14:30;;;;;;;2.95;0.20;;;29.00;37.00;;;;;;6261461;28;20045;-79
2022/09/02 15:17:32;;;;;;;0.60;0.25;;;29.30;36.80;;;;;;6255982;28;20442;-80
2022/09/02 15:20:33;;;;;;;2.88;0.63;;;29.20;36.30;;;;;;6270883;28;20052;-79
2022/09/02 15:23:39;;;;;;;1.13;0.35;;;29.00;36.70;;;;;;6271895;28;20064;-79
2022/09/02 15:26:41;;;;;;;0.75;0.47;;;28.80;36.80;;;;;;6272728;28;20554;-80
2022/09/02 15:29:42;;;;;;;1.55;0.50;;;28.80;37.00;;;;;;6272889;28;20056;-80
2022/09/02 15:32:45;;;;;;;1.08;0.30;;;28.70;37.00;;;;;;6272159;28;20053;-80
2022/09/02 15:35:47;;;;;;;2.00;0.60;;;28.60;36.80;;;;;;6272352;28;20473;-79
2022/09/02 15:38:50;;;;;;;2.08;0.40;;;28.30;37.40;;;;;;6270815;28;20076;-79
2022/09/02 15:41:53;;;;;;;0.52;0.30;;;28.10;37.60;;;;;;6271081;28;20049;-79
2022/09/02 15:44:54;;;;;;;3.33;0.32;;;27.80;37.70;;;;;;6255902;28;20045;-79
2022/09/02 15:47:58;;;;;;;3.65;0.35;;;27.50;38.50;;;;;;6244979;28;20067;-80
2022/09/02 15:50:59;;;;;;;0.25;0.20;;;27.40;38.70;;;;;;6245872;28;20061;-79
2022/09/02 15:54:05;;;;;;;1.30;0.30;;;27.20;39.00;;;;;;6247166;28;20061;-79
2022/09/02 15:57:06;;;;;;;5.78;0.50;;;27.10;39.00;;;;;;6246594;28;20060;-78
2022/09/02 16:00:09;;;;;;;1.40;0.40;;;27.00;39.30;;;;;;6245914;28;20060;-79
2022/09/02 16:03:11;;;;;;;2.00;0.50;;;26.90;39.70;;;;;;6247009;28;20050;-79
2022/09/02 16:06:13;;;;;;;1.02;0.17;;;26.90;39.90;;;;;;6245755;28;20053;-79
2022/09/02 16:09:17;;;;;;;1.23;0.38;;;26.70;39.80;;;;;;6245618;28;20071;-78
2022/09/02 16:12:19;;;;;;;0.73;0.40;;;26.70;39.90;;;;;;6245648;28;20049;-77